createdAt,value
2019-05-23T00:00:04.440Z,17.44
2019-05-23T00:01:19.562Z,17.42
2019-05-23T00:02:28.325Z,17.39
2019-05-23T00:03:45.777Z,17.36
2019-05-23T00:04:51.063Z,17.33
2019-05-23T00:06:02.095Z,17.32
2019-05-23T00:07:07.406Z,17.33
2019-05-23T00:08:12.698Z,17.25
2019-05-23T00:09:17.904Z,17.22
2019-05-23T00:10:23.573Z,17.25
2019-05-23T00:11:29.246Z,17.15
2019-05-23T00:12:35.570Z,17.12
2019-05-23T00:13:50.545Z,17.05
2019-05-23T00:14:57.908Z,17.01
2019-05-23T00:16:02.529Z,16.97
2019-05-23T00:17:06.257Z,16.95
2019-05-23T00:18:10.537Z,16.91
2019-05-23T00:19:14.542Z,16.93
2019-05-23T00:20:19.577Z,16.90
2019-05-23T00:21:24.082Z,16.87
2019-05-23T00:22:29.979Z,16.83
2019-05-23T00:23:35.532Z,16.79
2019-05-23T00:24:42.191Z,16.79
2019-05-23T00:25:47.118Z,16.80
2019-05-23T00:26:52.078Z,16.81
2019-05-23T00:27:56.777Z,16.80
2019-05-23T00:29:09.929Z,16.79
2019-05-23T00:30:09.805Z,16.81
2019-05-23T00:31:32.049Z,16.81
2019-05-23T00:32:37.417Z,16.80
2019-05-23T00:33:41.824Z,16.81
2019-05-23T00:34:46.459Z,16.79
2019-05-23T00:35:52.042Z,16.75
2019-05-23T00:36:56.468Z,16.74
2019-05-23T00:38:01.763Z,16.71
2019-05-23T00:39:08.998Z,16.70
2019-05-23T00:40:16.527Z,16.69
2019-05-23T00:41:22.541Z,16.68
2019-05-23T00:42:26.861Z,16.69
2019-05-23T00:43:31.184Z,16.67
2019-05-23T00:44:36.472Z,16.66
2019-05-23T00:45:40.698Z,16.63
2019-05-23T00:46:45.709Z,16.60
2019-05-23T00:47:49.442Z,16.57
2019-05-23T00:48:55.351Z,16.55
2019-05-23T00:49:59.392Z,16.55
2019-05-23T00:51:05.192Z,16.52
2019-05-23T00:52:09.754Z,16.51
2019-05-23T00:53:15.090Z,16.48
2019-05-23T00:54:19.546Z,16.45
2019-05-23T00:55:24.696Z,16.46
2019-05-23T00:56:28.327Z,16.45
2019-05-23T00:57:34.017Z,16.46
2019-05-23T00:58:38.816Z,16.46
2019-05-23T00:59:43.433Z,16.46
2019-05-23T01:00:49.454Z,16.46
2019-05-23T01:01:54.636Z,16.46
2019-05-23T01:02:58.776Z,16.44
2019-05-23T01:04:04.873Z,16.39
2019-05-23T01:05:10.476Z,16.38
2019-05-23T01:06:16.586Z,16.38
2019-05-23T01:07:20.948Z,16.38
2019-05-23T01:08:26.758Z,16.38
2019-05-23T01:09:31.383Z,16.38
2019-05-23T01:10:35.692Z,16.38
2019-05-23T01:11:39.901Z,16.36
2019-05-23T01:12:45.177Z,16.30
2019-05-23T01:13:49.032Z,16.21
2019-05-23T01:14:54.392Z,16.20
2019-05-23T01:15:59.024Z,16.20
2019-05-23T01:17:03.920Z,16.22
2019-05-23T01:18:09.465Z,16.21
2019-05-23T01:19:14.365Z,16.21
2019-05-23T01:20:22.695Z,16.22
2019-05-23T01:21:28.369Z,16.16
2019-05-23T01:22:32.204Z,16.08
2019-05-23T01:23:37.504Z,16.11
2019-05-23T01:24:45.529Z,16.10
2019-05-23T01:25:50.421Z,16.07
2019-05-23T01:26:54.820Z,16.04
2019-05-23T01:27:59.442Z,16.03
2019-05-23T01:29:05.198Z,16.03
2019-05-23T01:30:11.985Z,16.04
2019-05-23T01:31:20.222Z,16.04
2019-05-23T01:32:25.819Z,16.03
2019-05-23T01:33:30.119Z,16.03
2019-05-23T01:34:34.150Z,16.02
2019-05-23T01:35:39.349Z,16.00
2019-05-23T01:36:43.754Z,15.98
2019-05-23T01:37:47.952Z,15.97
2019-05-23T01:38:51.585Z,15.96
2019-05-23T01:39:56.216Z,15.94
2019-05-23T01:41:00.842Z,15.94
2019-05-23T01:42:06.129Z,15.91
2019-05-23T01:43:11.364Z,15.90
2019-05-23T01:44:16.755Z,15.91
2019-05-23T01:45:23.068Z,15.92
2019-05-23T01:46:28.869Z,15.90
2019-05-23T01:47:33.852Z,15.85
2019-05-23T01:48:38.797Z,15.83
2019-05-23T01:49:42.919Z,15.83
2019-05-23T01:50:47.193Z,15.83
2019-05-23T01:51:50.908Z,15.84
2019-05-23T01:52:55.719Z,15.83
2019-05-23T01:53:59.330Z,15.74
2019-05-23T01:55:04.301Z,15.70
2019-05-23T01:56:08.299Z,15.67
2019-05-23T01:57:13.426Z,15.62
2019-05-23T01:58:17.579Z,15.59
2019-05-23T01:59:21.781Z,15.58
2019-05-23T02:00:27.375Z,15.59
2019-05-23T02:01:32.616Z,15.53
2019-05-23T02:02:37.813Z,15.46
2019-05-23T02:03:42.889Z,15.48
2019-05-23T02:04:47.175Z,15.44
2019-05-23T02:05:51.733Z,15.46
2019-05-23T02:06:55.467Z,15.45
2019-05-23T02:08:00.792Z,15.43
2019-05-23T02:09:08.285Z,15.40
2019-05-23T02:10:13.332Z,15.43
2019-05-23T02:11:17.726Z,15.36
2019-05-23T02:12:23.053Z,15.38
2019-05-23T02:13:27.801Z,15.40
2019-05-23T02:14:32.078Z,15.36
2019-05-23T02:15:35.708Z,15.34
2019-05-23T02:16:40.210Z,15.30
2019-05-23T02:17:43.891Z,15.29
2019-05-23T02:18:49.082Z,15.31
2019-05-23T02:19:53.417Z,15.24
2019-05-23T02:20:58.113Z,15.25
2019-05-23T02:22:02.136Z,15.28
2019-05-23T02:23:08.181Z,15.24
2019-05-23T02:24:12.594Z,15.08
2019-05-23T02:25:18.189Z,15.09
2019-05-23T02:26:23.680Z,15.01
2019-05-23T02:27:28.671Z,15.01
2019-05-23T02:28:33.099Z,15.04
2019-05-23T02:29:37.608Z,15.01
2019-05-23T02:30:42.315Z,15.02
2019-05-23T02:31:47.129Z,15.07
2019-05-23T02:32:51.719Z,15.09
2019-05-23T02:33:56.318Z,15.10
2019-05-23T02:35:00.577Z,15.12
2019-05-23T02:36:05.462Z,15.14
2019-05-23T02:37:14.193Z,15.15
2019-05-23T02:38:35.197Z,15.12
2019-05-23T02:39:40.792Z,15.13
2019-05-23T02:40:46.350Z,15.10
2019-05-23T02:41:55.173Z,15.12
2019-05-23T02:43:09.143Z,15.15
2019-05-23T02:44:17.170Z,15.15
2019-05-23T02:45:24.025Z,15.12
2019-05-23T02:46:29.265Z,15.10
2019-05-23T02:47:38.810Z,15.03
2019-05-23T02:48:43.493Z,14.82
2019-05-23T02:49:50.073Z,14.61
2019-05-23T02:50:58.292Z,14.68
2019-05-23T02:52:14.407Z,14.77
2019-05-23T02:53:20.000Z,14.81
2019-05-23T02:54:27.317Z,14.86
2019-05-23T02:55:37.463Z,14.89
2019-05-23T02:56:42.983Z,14.91
2019-05-23T02:57:48.914Z,14.92
2019-05-23T02:59:02.337Z,14.90
2019-05-23T03:00:54.405Z,14.92
2019-05-23T03:02:27.902Z,14.91
2019-05-23T03:03:33.971Z,14.91
2019-05-23T03:04:38.665Z,14.91
2019-05-23T03:05:44.553Z,14.88
2019-05-23T03:06:49.241Z,14.85
2019-05-23T03:07:53.969Z,14.87
2019-05-23T03:08:59.574Z,14.90
2019-05-23T03:10:06.418Z,14.88
2019-05-23T03:11:29.866Z,14.86
2019-05-23T03:12:35.526Z,14.86
2019-05-23T03:13:41.803Z,14.88
2019-05-23T03:14:46.347Z,14.88
2019-05-23T03:15:52.062Z,14.90
2019-05-23T03:16:59.657Z,14.91
2019-05-23T03:18:05.508Z,14.88
2019-05-23T03:19:19.710Z,14.64
2019-05-23T03:20:24.030Z,14.64
2019-05-23T03:21:29.204Z,14.71
2019-05-23T03:22:37.403Z,14.76
2019-05-23T03:23:44.249Z,14.81
2019-05-23T03:24:49.507Z,14.81
2019-05-23T03:26:00.086Z,14.82
2019-05-23T03:27:05.785Z,14.85
2019-05-23T03:28:13.219Z,14.81
2019-05-23T03:29:16.943Z,14.78
2019-05-23T03:30:24.784Z,14.78
2019-05-23T03:31:39.279Z,14.77
2019-05-23T03:32:53.492Z,14.78
2019-05-23T03:33:57.330Z,14.82
2019-05-23T03:35:11.639Z,14.79
2019-05-23T03:36:16.168Z,14.53
2019-05-23T03:37:20.767Z,14.53
2019-05-23T03:38:24.409Z,14.58
2019-05-23T03:39:29.792Z,14.64
2019-05-23T03:40:35.641Z,14.69
2019-05-23T03:41:41.597Z,14.75
2019-05-23T03:42:46.036Z,14.83
2019-05-23T03:43:50.267Z,14.84
2019-05-23T03:44:54.819Z,14.83
2019-05-23T03:46:09.707Z,14.84
2019-05-23T03:47:15.660Z,14.88
2019-05-23T03:48:21.242Z,14.92
2019-05-23T03:49:25.577Z,14.94
2019-05-23T03:50:30.766Z,14.95
2019-05-23T03:51:34.854Z,14.86
2019-05-23T03:52:40.058Z,14.71
2019-05-23T03:53:45.635Z,14.66
2019-05-23T03:54:50.955Z,14.75
2019-05-23T03:55:54.587Z,14.77
2019-05-23T03:57:00.149Z,14.80
2019-05-23T03:58:05.550Z,14.84
2019-05-23T03:59:11.794Z,14.87
2019-05-23T04:00:17.097Z,14.89
2019-05-23T04:01:22.346Z,14.88
2019-05-23T04:02:26.544Z,14.90
2019-05-23T04:03:31.163Z,14.93
2019-05-23T04:04:34.790Z,14.97
2019-05-23T04:05:39.202Z,15.02
2019-05-23T04:06:42.995Z,15.04
2019-05-23T04:07:50.102Z,15.08
2019-05-23T04:08:54.162Z,15.10
2019-05-23T04:09:58.943Z,15.13
2019-05-23T04:11:03.608Z,15.16
2019-05-23T04:12:08.655Z,15.20
2019-05-23T04:13:12.716Z,15.23
2019-05-23T04:14:18.004Z,15.25
2019-05-23T04:15:22.921Z,15.24
2019-05-23T04:16:30.461Z,15.24
2019-05-23T04:17:33.050Z,15.26
2019-05-23T04:18:38.032Z,15.25
2019-05-23T04:19:43.224Z,15.26
2019-05-23T04:20:47.482Z,15.28
2019-05-23T04:21:51.494Z,15.31
2019-05-23T04:22:55.791Z,15.35
2019-05-23T04:23:59.895Z,15.33
2019-05-23T04:25:06.015Z,15.33
2019-05-23T04:26:10.214Z,15.36
2019-05-23T04:27:14.557Z,15.43
2019-05-23T04:28:18.573Z,15.48
2019-05-23T04:29:23.887Z,15.49
2019-05-23T04:30:27.568Z,15.50
2019-05-23T04:31:31.967Z,15.53
2019-05-23T04:32:36.037Z,15.59
2019-05-23T04:33:40.322Z,15.65
2019-05-23T04:34:44.729Z,15.68
2019-05-23T04:35:49.032Z,15.57
2019-05-23T04:36:52.831Z,15.64
2019-05-23T04:37:57.135Z,15.66
2019-05-23T04:39:00.886Z,15.72
2019-05-23T04:40:08.000Z,15.75
2019-05-23T04:41:11.661Z,15.77
2019-05-23T04:42:16.564Z,15.81
2019-05-23T04:43:20.688Z,15.85
2019-05-23T04:44:25.088Z,15.91
2019-05-23T04:45:30.201Z,15.98
2019-05-23T04:46:34.437Z,16.00
2019-05-23T04:47:38.410Z,16.02
2019-05-23T04:48:43.492Z,16.04
2019-05-23T04:49:47.689Z,16.05
2019-05-23T04:50:52.228Z,16.06
2019-05-23T04:51:56.060Z,16.07
2019-05-23T04:53:01.062Z,16.13
2019-05-23T04:54:06.485Z,16.10
2019-05-23T04:55:13.467Z,16.06
2019-05-23T04:56:17.309Z,16.01
2019-05-23T04:57:23.492Z,15.99
2019-05-23T04:58:27.132Z,16.02
2019-05-23T04:59:31.732Z,16.06
2019-05-23T05:00:36.029Z,16.07
2019-05-23T05:01:41.142Z,16.10
2019-05-23T05:02:45.795Z,16.14
2019-05-23T05:03:51.063Z,16.10
2019-05-23T05:04:54.820Z,16.04
2019-05-23T05:05:59.616Z,16.06
2019-05-23T05:07:04.105Z,16.03
2019-05-23T05:08:08.705Z,15.99
2019-05-23T05:09:13.966Z,16.02
2019-05-23T05:10:21.106Z,16.03
2019-05-23T05:11:24.754Z,16.02
2019-05-23T05:12:29.186Z,16.00
2019-05-23T05:13:34.520Z,16.08
2019-05-23T05:14:39.005Z,16.10
2019-05-23T05:15:43.072Z,16.11
2019-05-23T05:16:47.204Z,16.15
2019-05-23T05:17:53.100Z,16.18
2019-05-23T05:18:57.382Z,16.16
2019-05-23T05:20:01.693Z,16.16
2019-05-23T05:21:06.208Z,16.19
2019-05-23T05:22:10.587Z,16.22
2019-05-23T05:23:15.226Z,16.18
2019-05-23T05:24:19.418Z,16.18
2019-05-23T05:25:24.003Z,16.24
2019-05-23T05:26:27.923Z,16.27
2019-05-23T05:27:32.486Z,16.34
2019-05-23T05:28:36.210Z,16.30
2019-05-23T05:29:40.403Z,16.29
2019-05-23T05:30:44.415Z,16.39
2019-05-23T05:31:48.598Z,16.40
2019-05-23T05:32:52.179Z,16.47
2019-05-23T05:33:57.217Z,16.50
2019-05-23T05:35:00.903Z,16.52
2019-05-23T05:36:05.133Z,16.56
2019-05-23T05:37:08.770Z,16.60
2019-05-23T05:38:13.088Z,16.71
2019-05-23T05:39:18.072Z,16.77
2019-05-23T05:40:22.599Z,16.78
2019-05-23T05:41:26.393Z,16.70
2019-05-23T05:42:30.875Z,16.77
2019-05-23T05:43:35.550Z,16.80
2019-05-23T05:44:40.546Z,16.81
2019-05-23T05:45:44.498Z,16.70
2019-05-23T05:46:49.671Z,16.61
2019-05-23T05:47:53.456Z,16.51
2019-05-23T05:48:58.141Z,16.55
2019-05-23T05:50:02.756Z,16.62
2019-05-23T05:51:07.246Z,16.78
2019-05-23T05:52:11.472Z,16.92
2019-05-23T05:53:15.953Z,16.91
2019-05-23T05:54:20.491Z,16.87
2019-05-23T05:55:24.697Z,16.93
2019-05-23T05:56:28.332Z,17.06
2019-05-23T05:57:32.955Z,17.15
2019-05-23T05:58:36.586Z,17.23
2019-05-23T05:59:41.159Z,17.28
2019-05-23T06:00:49.424Z,17.37
2019-05-23T06:01:53.407Z,17.43
2019-05-23T06:03:05.547Z,17.51
2019-05-23T06:04:05.644Z,17.55
2019-05-23T06:05:11.786Z,17.59
2019-05-23T06:06:22.952Z,17.59
2019-05-23T06:07:33.943Z,17.60
2019-05-23T06:08:39.233Z,17.61
2019-05-23T06:09:43.637Z,17.64
2019-05-23T06:10:47.253Z,17.73
2019-05-23T06:11:51.569Z,17.75
2019-05-23T06:12:55.355Z,17.78
2019-05-23T06:13:59.655Z,17.82
2019-05-23T06:15:03.910Z,17.84
2019-05-23T06:16:08.247Z,17.87
2019-05-23T06:17:13.830Z,17.88
2019-05-23T06:18:18.053Z,17.93
2019-05-23T06:19:22.011Z,18.01
2019-05-23T06:20:26.740Z,18.00
2019-05-23T06:21:30.592Z,18.09
2019-05-23T06:22:35.407Z,18.22
2019-05-23T06:23:39.618Z,18.31
2019-05-23T06:24:51.099Z,18.36
2019-05-23T06:25:49.482Z,18.36
2019-05-23T06:26:54.299Z,18.44
2019-05-23T06:27:59.935Z,18.53
2019-05-23T06:29:05.558Z,18.62
2019-05-23T06:30:12.660Z,18.67
2019-05-23T06:31:18.251Z,18.68
2019-05-23T06:32:24.286Z,18.62
2019-05-23T06:33:29.048Z,18.65
2019-05-23T06:34:32.985Z,18.78
2019-05-23T06:35:38.679Z,18.91
2019-05-23T06:36:43.486Z,18.97
2019-05-23T06:37:47.805Z,19.03
2019-05-23T06:38:52.174Z,19.12
2019-05-23T06:39:57.431Z,19.22
2019-05-23T06:41:02.856Z,19.32
2019-05-23T06:42:08.506Z,19.31
2019-05-23T06:43:12.348Z,19.34
2019-05-23T06:44:17.992Z,19.46
2019-05-23T06:45:21.829Z,19.53
2019-05-23T06:46:26.409Z,19.56
2019-05-23T06:47:31.217Z,19.65
2019-05-23T06:48:36.398Z,19.84
2019-05-23T06:49:40.172Z,20.00
2019-05-23T06:50:44.683Z,20.14
2019-05-23T06:51:48.313Z,20.20
2019-05-23T06:52:52.553Z,20.15
2019-05-23T06:53:57.159Z,20.04
2019-05-23T06:55:01.417Z,20.16
2019-05-23T06:56:05.441Z,20.29
2019-05-23T06:57:09.661Z,20.28
2019-05-23T06:58:13.832Z,20.33
2019-05-23T06:59:18.437Z,20.40
2019-05-23T07:00:23.783Z,20.46
2019-05-23T07:01:28.635Z,20.55
2019-05-23T07:02:32.479Z,20.58
2019-05-23T07:03:42.667Z,20.57
2019-05-23T07:04:42.681Z,20.62
2019-05-23T07:05:46.932Z,20.69
2019-05-23T07:06:50.969Z,20.78
2019-05-23T07:07:55.204Z,20.97
2019-05-23T07:08:59.379Z,21.08
2019-05-23T07:10:06.260Z,21.19
2019-05-23T07:11:09.933Z,21.31
2019-05-23T07:12:14.171Z,21.40
2019-05-23T07:13:19.002Z,21.30
2019-05-23T07:14:23.211Z,21.25
2019-05-23T07:15:28.914Z,21.31
2019-05-23T07:16:33.277Z,21.44
2019-05-23T07:17:37.130Z,21.61
2019-05-23T07:18:43.150Z,21.82
2019-05-23T07:19:47.002Z,22.02
2019-05-23T07:20:51.585Z,22.10
2019-05-23T07:21:55.525Z,22.14
2019-05-23T07:23:00.460Z,22.17
2019-05-23T07:24:04.392Z,22.17
2019-05-23T07:25:09.406Z,22.17
2019-05-23T07:26:14.157Z,22.31
2019-05-23T07:27:19.458Z,22.47
2019-05-23T07:28:23.083Z,22.58
2019-05-23T07:29:27.311Z,22.51
2019-05-23T07:30:31.064Z,22.58
2019-05-23T07:31:35.732Z,22.57
2019-05-23T07:32:39.634Z,22.77
2019-05-23T07:34:00.389Z,22.89
2019-05-23T07:34:49.242Z,23.09
2019-05-23T07:35:54.362Z,23.16
2019-05-23T07:36:58.698Z,23.30
2019-05-23T07:38:02.918Z,23.35
2019-05-23T07:39:11.452Z,23.41
2019-05-23T07:40:16.001Z,23.37
2019-05-23T07:41:19.721Z,23.62
2019-05-23T07:42:23.965Z,23.95
2019-05-23T07:43:27.854Z,24.17
2019-05-23T07:44:47.421Z,24.39
2019-05-23T07:45:42.711Z,24.58
2019-05-23T07:46:46.992Z,24.60
2019-05-23T07:47:50.704Z,24.76
2019-05-23T07:48:55.283Z,24.91
2019-05-23T07:49:58.852Z,24.95
2019-05-23T07:51:03.489Z,25.17
2019-05-23T07:52:07.136Z,25.40
2019-05-23T07:53:12.638Z,25.45
2019-05-23T07:54:20.981Z,25.45
2019-05-23T07:55:45.241Z,25.34
2019-05-23T07:56:48.943Z,25.50
2019-05-23T07:57:53.361Z,25.78
2019-05-23T07:58:57.063Z,25.83
2019-05-23T08:00:01.839Z,25.80
2019-05-23T08:01:10.087Z,25.76
2019-05-23T08:02:19.023Z,25.82
2019-05-23T08:03:24.196Z,26.15
2019-05-23T08:04:28.722Z,26.23
2019-05-23T08:05:32.922Z,26.44
2019-05-23T08:06:37.718Z,26.65
2019-05-23T08:07:41.504Z,26.79
2019-05-23T08:08:45.946Z,26.96
2019-05-23T08:09:50.190Z,27.04
2019-05-23T08:10:54.810Z,26.99
2019-05-23T08:11:58.435Z,27.25
2019-05-23T08:13:02.817Z,27.32
2019-05-23T08:14:11.449Z,27.37
2019-05-23T08:15:14.865Z,27.16
2019-05-23T08:16:18.571Z,26.91
2019-05-23T08:17:23.053Z,27.08
2019-05-23T08:18:27.085Z,27.18
2019-05-23T08:19:48.553Z,27.17
2019-05-23T08:20:38.191Z,27.38
2019-05-23T08:21:42.209Z,27.52
2019-05-23T08:22:47.254Z,27.76
2019-05-23T08:23:51.870Z,27.96
2019-05-23T08:24:55.891Z,28.11
2019-05-23T08:26:00.303Z,28.18
2019-05-23T08:27:05.524Z,28.11
2019-05-23T08:28:09.753Z,27.80
2019-05-23T08:29:25.271Z,27.26
2019-05-23T08:30:19.811Z,27.16
2019-05-23T08:31:24.184Z,27.19
2019-05-23T08:32:28.810Z,27.24
2019-05-23T08:33:34.130Z,27.44
2019-05-23T08:34:42.189Z,27.60
2019-05-23T08:35:46.329Z,27.86
2019-05-23T08:36:50.877Z,27.83
2019-05-23T08:37:55.093Z,27.88
2019-05-23T08:39:00.192Z,27.76
2019-05-23T08:40:05.994Z,27.97
2019-05-23T08:41:10.595Z,28.03
2019-05-23T08:42:14.635Z,27.81
2019-05-23T08:43:19.249Z,27.86
2019-05-23T08:44:23.020Z,27.68
2019-05-23T08:45:27.264Z,27.67
2019-05-23T08:46:30.955Z,27.56
2019-05-23T08:47:35.679Z,27.55
2019-05-23T08:48:39.399Z,27.82
2019-05-23T08:49:44.063Z,27.99
2019-05-23T08:50:51.243Z,28.04
2019-05-23T08:51:54.038Z,28.17
2019-05-23T08:52:58.016Z,27.67
2019-05-23T08:54:02.665Z,27.35
2019-05-23T08:55:18.119Z,27.30
2019-05-23T08:56:22.701Z,27.41
2019-05-23T08:57:26.520Z,27.70
2019-05-23T08:58:30.767Z,27.94
2019-05-23T08:59:34.506Z,28.17
2019-05-23T09:00:40.207Z,28.04
2019-05-23T09:01:44.205Z,27.88
2019-05-23T09:02:50.215Z,27.94
2019-05-23T09:03:53.884Z,27.98
2019-05-23T09:05:05.514Z,27.91
2019-05-23T09:06:05.380Z,28.04
2019-05-23T09:07:10.978Z,27.84
2019-05-23T09:08:16.943Z,27.58
2019-05-23T09:09:29.564Z,27.62
2019-05-23T09:10:27.378Z,27.53
2019-05-23T09:11:33.598Z,27.69
2019-05-23T09:12:37.631Z,27.70
2019-05-23T09:13:42.113Z,27.62
2019-05-23T09:14:46.052Z,27.54
2019-05-23T09:15:52.736Z,27.60
2019-05-23T09:16:56.226Z,27.66
2019-05-23T09:18:00.463Z,27.76
2019-05-23T09:19:04.113Z,27.94
2019-05-23T09:20:09.744Z,27.78
2019-05-23T09:21:13.826Z,27.84
2019-05-23T09:22:18.602Z,27.90
2019-05-23T09:23:22.301Z,28.02
2019-05-23T09:24:26.533Z,27.82
2019-05-23T09:25:30.682Z,27.82
2019-05-23T09:26:35.761Z,28.02
2019-05-23T09:27:39.712Z,27.97
2019-05-23T09:28:44.634Z,27.67
2019-05-23T09:29:48.554Z,27.66
2019-05-23T09:30:52.822Z,27.49
2019-05-23T09:31:56.452Z,27.20
2019-05-23T09:33:00.688Z,26.91
2019-05-23T09:34:04.341Z,26.93
2019-05-23T09:35:20.395Z,27.11
2019-05-23T09:36:14.613Z,26.79
2019-05-23T09:37:19.612Z,26.90
2019-05-23T09:38:23.829Z,26.78
2019-05-23T09:39:28.769Z,26.67
2019-05-23T09:40:32.808Z,26.68
2019-05-23T09:41:38.058Z,26.96
2019-05-23T09:42:41.631Z,27.26
2019-05-23T09:43:46.075Z,27.50
2019-05-23T09:44:49.614Z,27.57
2019-05-23T09:45:53.988Z,27.62
2019-05-23T09:46:57.993Z,27.49
2019-05-23T09:48:02.484Z,27.72
2019-05-23T09:49:10.697Z,27.76
2019-05-23T09:50:16.941Z,27.55
2019-05-23T09:51:21.258Z,27.35
2019-05-23T09:52:27.222Z,27.47
2019-05-23T09:53:31.009Z,27.70
2019-05-23T09:54:35.296Z,27.93
2019-05-23T09:55:38.939Z,27.69
2019-05-23T09:56:43.740Z,27.94
2019-05-23T09:57:47.511Z,27.86
2019-05-23T09:58:52.015Z,27.98
2019-05-23T09:59:57.041Z,28.11
2019-05-23T10:01:01.451Z,28.25
2019-05-23T10:02:05.827Z,28.40
2019-05-23T10:03:10.616Z,28.30
2019-05-23T10:04:14.604Z,28.25
2019-05-23T10:05:19.146Z,28.14
2019-05-23T10:06:22.786Z,28.11
2019-05-23T10:07:27.199Z,28.24
2019-05-23T10:08:30.884Z,28.47
2019-05-23T10:09:35.162Z,28.60
2019-05-23T10:10:39.306Z,28.48
2019-05-23T10:11:44.053Z,28.38
2019-05-23T10:12:47.846Z,28.49
2019-05-23T10:13:52.065Z,28.60
2019-05-23T10:14:55.778Z,28.59
2019-05-23T10:16:01.448Z,28.67
2019-05-23T10:17:05.341Z,28.62
2019-05-23T10:18:23.212Z,28.63
2019-05-23T10:19:26.793Z,28.50
2019-05-23T10:20:34.418Z,28.51
2019-05-23T10:21:38.038Z,28.57
2019-05-23T10:22:42.209Z,28.55
2019-05-23T10:23:45.798Z,28.68
2019-05-23T10:24:50.231Z,28.67
2019-05-23T10:25:54.253Z,28.82
2019-05-23T10:26:58.486Z,28.88
2019-05-23T10:28:02.287Z,28.83
2019-05-23T10:29:06.836Z,28.89
2019-05-23T10:30:12.535Z,28.99
2019-05-23T10:31:17.031Z,29.15
2019-05-23T10:32:21.126Z,28.94
2019-05-23T10:33:25.362Z,28.92
2019-05-23T10:34:29.112Z,28.84
2019-05-23T10:35:34.092Z,28.98
2019-05-23T10:36:37.752Z,28.76
2019-05-23T10:37:42.331Z,28.67
2019-05-23T10:38:45.966Z,28.68
2019-05-23T10:39:53.145Z,28.91
2019-05-23T10:40:56.786Z,29.16
2019-05-23T10:42:01.003Z,29.33
2019-05-23T10:43:05.234Z,29.48
2019-05-23T10:44:09.697Z,29.73
2019-05-23T10:45:14.147Z,29.84
2019-05-23T10:46:18.448Z,29.93
2019-05-23T10:47:22.170Z,29.89
2019-05-23T10:48:26.876Z,29.87
2019-05-23T10:49:30.510Z,29.83
2019-05-23T10:50:44.153Z,29.92
2019-05-23T10:51:40.355Z,30.12
2019-05-23T10:52:44.503Z,30.14
2019-05-23T10:53:48.153Z,30.14
2019-05-23T10:54:52.703Z,30.20
2019-05-23T10:55:56.524Z,30.23
2019-05-23T10:57:00.751Z,30.20
2019-05-23T10:58:05.170Z,30.17
2019-05-23T10:59:09.444Z,30.26
2019-05-23T11:00:14.914Z,30.34
2019-05-23T11:01:20.055Z,30.38
2019-05-23T11:02:26.874Z,30.34
2019-05-23T11:03:30.887Z,30.39
2019-05-23T11:04:34.820Z,30.30
2019-05-23T11:05:39.031Z,30.39
2019-05-23T11:06:43.171Z,30.34
2019-05-23T11:07:47.323Z,30.12
2019-05-23T11:08:51.063Z,30.06
2019-05-23T11:09:55.973Z,30.21
2019-05-23T11:10:59.892Z,30.13
2019-05-23T11:12:04.743Z,29.86
2019-05-23T11:13:08.440Z,29.85
2019-05-23T11:14:12.745Z,29.82
2019-05-23T11:15:17.143Z,29.84
2019-05-23T11:16:21.631Z,29.62
2019-05-23T11:17:25.984Z,29.51
2019-05-23T11:18:30.475Z,29.40
2019-05-23T11:19:34.670Z,29.44
2019-05-23T11:20:38.905Z,29.45
2019-05-23T11:21:42.640Z,29.39
2019-05-23T11:22:46.966Z,29.54
2019-05-23T11:23:55.233Z,29.68
2019-05-23T11:25:00.266Z,29.93
2019-05-23T11:26:04.350Z,29.99
2019-05-23T11:27:09.042Z,29.99
2019-05-23T11:28:12.739Z,29.79
2019-05-23T11:29:16.960Z,29.47
2019-05-23T11:30:31.033Z,29.22
2019-05-23T11:31:35.712Z,29.09
2019-05-23T11:32:39.876Z,28.77
2019-05-23T11:33:44.115Z,28.53
2019-05-23T11:34:48.718Z,28.48
2019-05-23T11:35:53.210Z,28.41
2019-05-23T11:36:56.954Z,28.33
2019-05-23T11:38:01.194Z,28.12
2019-05-23T11:39:07.529Z,27.99
2019-05-23T11:40:11.762Z,27.95
2019-05-23T11:41:15.938Z,27.94
2019-05-23T11:42:20.154Z,27.95
2019-05-23T11:43:24.288Z,27.73
2019-05-23T11:44:28.654Z,27.55
2019-05-23T11:45:34.308Z,27.24
2019-05-23T11:46:39.495Z,27.01
2019-05-23T11:47:43.154Z,26.92
2019-05-23T11:48:47.375Z,26.85
2019-05-23T11:49:52.219Z,26.64
2019-05-23T11:50:56.462Z,26.58
2019-05-23T11:52:00.301Z,26.58
2019-05-23T11:53:04.931Z,26.50
2019-05-23T11:54:10.317Z,26.47
2019-05-23T11:55:15.344Z,26.04
2019-05-23T11:56:19.794Z,25.96
2019-05-23T11:57:24.076Z,25.67
2019-05-23T11:58:32.154Z,25.66
2019-05-23T11:59:34.326Z,25.61
2019-05-23T12:00:55.151Z,25.55
2019-05-23T12:02:16.061Z,25.47
2019-05-23T12:03:19.806Z,25.50
2019-05-23T12:04:24.491Z,25.45
2019-05-23T12:05:29.559Z,25.35
2019-05-23T12:06:54.553Z,25.27
2019-05-23T12:07:49.770Z,25.16
2019-05-23T12:08:54.193Z,25.04
2019-05-23T12:09:58.121Z,25.10
2019-05-23T12:11:02.408Z,25.03
2019-05-23T12:12:08.063Z,24.88
2019-05-23T12:13:12.335Z,24.83
2019-05-23T12:14:16.049Z,24.72
2019-05-23T12:15:22.130Z,24.57
2019-05-23T12:16:26.095Z,24.51
2019-05-23T12:17:32.825Z,24.47
2019-05-23T12:18:36.437Z,24.37
2019-05-23T12:19:40.734Z,24.31
2019-05-23T12:20:44.573Z,24.21
2019-05-23T12:21:48.782Z,24.20
2019-05-23T12:22:52.916Z,24.12
2019-05-23T12:23:57.188Z,24.07
2019-05-23T12:25:19.987Z,24.01
2019-05-23T12:26:07.102Z,23.94
2019-05-23T12:27:11.223Z,23.91
2019-05-23T12:28:17.132Z,23.89
2019-05-23T12:29:20.866Z,23.92
2019-05-23T12:30:25.099Z,23.88
2019-05-23T12:31:28.819Z,23.91
2019-05-23T12:32:33.347Z,23.79
2019-05-23T12:33:37.378Z,23.58
2019-05-23T12:34:42.118Z,23.53
2019-05-23T12:35:45.743Z,23.42
2019-05-23T12:36:50.051Z,23.28
2019-05-23T12:37:54.056Z,23.19
2019-05-23T12:38:58.382Z,23.11
2019-05-23T12:40:02.899Z,23.13
2019-05-23T12:41:08.174Z,23.11
2019-05-23T12:42:11.859Z,23.09
2019-05-23T12:43:16.054Z,23.13
2019-05-23T12:44:20.234Z,23.08
2019-05-23T12:45:24.761Z,23.06
2019-05-23T12:46:28.799Z,23.07
2019-05-23T12:47:36.972Z,23.07
2019-05-23T12:48:45.392Z,23.06
2019-05-23T12:49:51.017Z,22.97
2019-05-23T12:51:08.986Z,22.91
2019-05-23T12:52:13.874Z,22.98
2019-05-23T12:53:17.885Z,22.97
2019-05-23T12:54:22.201Z,22.95
2019-05-23T12:55:25.864Z,22.88
2019-05-23T12:56:30.719Z,22.79
2019-05-23T12:57:34.560Z,22.80
2019-05-23T12:58:39.677Z,22.75
2019-05-23T12:59:43.683Z,22.53
2019-05-23T13:00:48.477Z,22.42
2019-05-23T13:01:53.941Z,22.42
2019-05-23T13:02:58.492Z,22.38
2019-05-23T13:04:02.594Z,22.41
2019-05-23T13:05:09.814Z,22.41
2019-05-23T13:06:13.864Z,22.43
2019-05-23T13:07:34.403Z,22.45
2019-05-23T13:08:24.121Z,22.36
2019-05-23T13:09:29.364Z,22.29
2019-05-23T13:10:33.760Z,22.19
2019-05-23T13:11:38.771Z,22.20
2019-05-23T13:12:42.446Z,22.23
2019-05-23T13:13:46.651Z,22.28
2019-05-23T13:14:54.390Z,22.27
2019-05-23T13:15:56.282Z,22.36
2019-05-23T13:17:01.520Z,22.45
2019-05-23T13:18:06.828Z,22.54
2019-05-23T13:19:10.955Z,22.68
2019-05-23T13:20:15.271Z,22.83
2019-05-23T13:21:18.927Z,22.91
2019-05-23T13:22:23.360Z,22.93
2019-05-23T13:23:28.449Z,22.97
2019-05-23T13:24:51.283Z,22.97
2019-05-23T13:25:38.787Z,22.97
2019-05-23T13:26:42.994Z,22.86
2019-05-23T13:27:46.949Z,22.95
2019-05-23T13:28:51.188Z,22.91
2019-05-23T13:29:54.886Z,23.09
2019-05-23T13:30:59.101Z,23.19
2019-05-23T13:32:03.100Z,23.29
2019-05-23T13:33:07.993Z,23.37
2019-05-23T13:34:11.647Z,23.49
2019-05-23T13:35:15.868Z,23.46
2019-05-23T13:36:19.767Z,23.53
2019-05-23T13:37:25.052Z,23.62
2019-05-23T13:38:28.679Z,23.85
2019-05-23T13:39:32.932Z,24.06
2019-05-23T13:40:36.559Z,24.14
2019-05-23T13:41:40.792Z,24.32
2019-05-23T13:42:44.811Z,24.65
2019-05-23T13:43:49.358Z,25.02
2019-05-23T13:44:53.234Z,25.23
2019-05-23T13:45:57.753Z,25.25
2019-05-23T13:47:01.392Z,25.55
2019-05-23T13:48:06.004Z,25.86
2019-05-23T13:49:09.910Z,26.09
2019-05-23T13:50:14.739Z,26.11
2019-05-23T13:51:18.386Z,26.29
2019-05-23T13:52:22.599Z,26.33
2019-05-23T13:53:26.631Z,26.52
2019-05-23T13:54:35.709Z,26.66
2019-05-23T13:55:38.171Z,26.66
2019-05-23T13:56:47.378Z,26.66
2019-05-23T13:57:48.301Z,26.73
2019-05-23T13:58:53.395Z,26.72
2019-05-23T13:59:57.054Z,26.78